sensor_id;sensor_type;location;lat;lon;timestamp;temperature;humidity
15625;DHT22;7912;51.376;6.126;2023-03-01T00:01:16;2.60;99.90
15625;DHT22;7912;51.376;6.126;2023-03-01T00:07:12;2.60;99.90
15625;DHT22;7912;51.376;6.126;2023-03-01T00:09:39;2.60;99.90
15625;DHT22;7912;51.376;6.126;2023-03-01T00:12:25;2.50;99.90
15625;DHT22;7912;51.376;6.126;2023-03-01T00:14:52;2.50;99.90
15625;DHT22;7912;51.376;6.126;2023-03-01T00:17:20;2.50;99.90
15625;DHT22;7912;51.376;6.126;2023-03-01T00:19:47;2.40;99.90
15625;DHT22;7912;51.376;6.126;2023-03-01T00:22:14;2.50;99.90
15625;DHT22;7912;51.376;6.126;2023-03-01T00:24:41;2.40;99.90
15625;DHT22;7912;51.376;6.126;2023-03-01T00:27:08;2.40;99.90
15625;DHT22;7912;51.376;6.126;2023-03-01T00:29:35;2.40;99.90
15625;DHT22;7912;51.376;6.126;2023-03-01T00:32:03;2.40;99.90
15625;DHT22;7912;51.376;6.126;2023-03-01T00:34:31;2.40;99.90
15625;DHT22;7912;51.376;6.126;2023-03-01T00:37:00;2.40;99.90
15625;DHT22;7912;51.376;6.126;2023-03-01T00:39:32;2.40;99.90
15625;DHT22;7912;51.376;6.126;2023-03-01T00:42:00;2.40;99.90
15625;DHT22;7912;51.376;6.126;2023-03-01T00:44:27;2.30;99.90
15625;DHT22;7912;51.376;6.126;2023-03-01T00:46:55;2.30;99.90
15625;DHT22;7912;51.376;6.126;2023-03-01T00:49:22;2.30;99.90
15625;DHT22;7912;51.376;6.126;2023-03-01T00:51:50;2.30;99.90
15625;DHT22;7912;51.376;6.126;2023-03-01T00:54:38;2.30;99.90
15625;DHT22;7912;51.376;6.126;2023-03-01T00:57:05;2.30;99.90
15625;DHT22;7912;51.376;6.126;2023-03-01T01:03:01;2.20;99.90
15625;DHT22;7912;51.376;6.126;2023-03-01T01:05:34;2.20;99.90
15625;DHT22;7912;51.376;6.126;2023-03-01T01:08:02;2.20;99.90
15625;DHT22;7912;51.376;6.126;2023-03-01T01:10:29;2.20;99.90
15625;DHT22;7912;51.376;6.126;2023-03-01T01:12:56;2.20;99.90
15625;DHT22;7912;51.376;6.126;2023-03-01T01:15:24;2.10;99.90
15625;DHT22;7912;51.376;6.126;2023-03-01T01:21:12;2.10;99.90
15625;DHT22;7912;51.376;6.126;2023-03-01T01:23:42;2.10;99.90
15625;DHT22;7912;51.376;6.126;2023-03-01T01:26:14;2.10;99.90
15625;DHT22;7912;51.376;6.126;2023-03-01T01:32:47;2.00;99.90
15625;DHT22;7912;51.376;6.126;2023-03-01T01:35:14;2.00;99.90
15625;DHT22;7912;51.376;6.126;2023-03-01T01:37:42;2.00;99.90
15625;DHT22;7912;51.376;6.126;2023-03-01T01:40:10;2.00;99.90
15625;DHT22;7912;51.376;6.126;2023-03-01T01:42:38;1.90;99.90
15625;DHT22;7912;51.376;6.126;2023-03-01T01:45:24;1.90;99.90
15625;DHT22;7912;51.376;6.126;2023-03-01T01:48:09;1.90;99.90
15625;DHT22;7912;51.376;6.126;2023-03-01T01:50:40;1.80;99.90
15625;DHT22;7912;51.376;6.126;2023-03-01T01:53:12;1.80;99.90
15625;DHT22;7912;51.376;6.126;2023-03-01T01:55:48;1.80;99.90
15625;DHT22;7912;51.376;6.126;2023-03-01T01:58:25;1.80;99.90
15625;DHT22;7912;51.376;6.126;2023-03-01T02:04:18;1.70;99.90
15625;DHT22;7912;51.376;6.126;2023-03-01T02:06:51;1.70;99.90
15625;DHT22;7912;51.376;6.126;2023-03-01T02:09:25;1.60;99.90
15625;DHT22;7912;51.376;6.126;2023-03-01T02:11:54;1.70;99.90
15625;DHT22;7912;51.376;6.126;2023-03-01T02:14:21;1.60;99.90
15625;DHT22;7912;51.376;6.126;2023-03-01T02:16:49;1.60;99.90
15625;DHT22;7912;51.376;6.126;2023-03-01T02:19:36;1.60;99.90
15625;DHT22;7912;51.376;6.126;2023-03-01T02:22:25;1.60;99.90
15625;DHT22;7912;51.376;6.126;2023-03-01T02:30:47;1.50;99.90
15625;DHT22;7912;51.376;6.126;2023-03-01T02:37:17;1.50;99.90
15625;DHT22;7912;51.376;6.126;2023-03-01T02:40:16;1.50;99.90
15625;DHT22;7912;51.376;6.126;2023-03-01T02:42:55;1.50;99.90
15625;DHT22;7912;51.376;6.126;2023-03-01T02:45:25;1.50;99.90
15625;DHT22;7912;51.376;6.126;2023-03-01T02:47:57;1.50;99.90
15625;DHT22;7912;51.376;6.126;2023-03-01T02:53:02;1.40;99.90
15625;DHT22;7912;51.376;6.126;2023-03-01T02:55:53;1.40;99.90
15625;DHT22;7912;51.376;6.126;2023-03-01T02:58:21;1.40;99.90
15625;DHT22;7912;51.376;6.126;2023-03-01T03:00:48;1.40;99.90
15625;DHT22;7912;51.376;6.126;2023-03-01T03:03:18;1.40;99.90
15625;DHT22;7912;51.376;6.126;2023-03-01T03:05:47;1.40;99.90
15625;DHT22;7912;51.376;6.126;2023-03-01T03:08:15;1.40;99.90
15625;DHT22;7912;51.376;6.126;2023-03-01T03:10:51;1.30;99.90
15625;DHT22;7912;51.376;6.126;2023-03-01T03:13:18;1.30;99.90
15625;DHT22;7912;51.376;6.126;2023-03-01T03:19:45;1.30;99.90
15625;DHT22;7912;51.376;6.126;2023-03-01T03:22:13;1.30;99.90
15625;DHT22;7912;51.376;6.126;2023-03-01T03:24:40;1.30;99.90
15625;DHT22;7912;51.376;6.126;2023-03-01T03:27:07;1.30;99.90
15625;DHT22;7912;51.376;6.126;2023-03-01T03:29:35;1.20;99.90
15625;DHT22;7912;51.376;6.126;2023-03-01T03:32:02;1.20;99.90
15625;DHT22;7912;51.376;6.126;2023-03-01T03:34:30;1.20;99.90
15625;DHT22;7912;51.376;6.126;2023-03-01T03:36:57;1.20;99.90
15625;DHT22;7912;51.376;6.126;2023-03-01T03:39:29;1.20;99.90
15625;DHT22;7912;51.376;6.126;2023-03-01T03:42:01;1.10;99.90
15625;DHT22;7912;51.376;6.126;2023-03-01T03:44:28;1.10;99.90
15625;DHT22;7912;51.376;6.126;2023-03-01T03:46:56;1.10;99.90
15625;DHT22;7912;51.376;6.126;2023-03-01T03:49:23;1.10;99.90
15625;DHT22;7912;51.376;6.126;2023-03-01T03:52:11;1.10;99.90
15625;DHT22;7912;51.376;6.126;2023-03-01T03:54:40;1.10;99.90
15625;DHT22;7912;51.376;6.126;2023-03-01T03:57:07;1.10;99.90
15625;DHT22;7912;51.376;6.126;2023-03-01T04:02:42;1.10;99.90
15625;DHT22;7912;51.376;6.126;2023-03-01T04:05:12;1.10;99.90
15625;DHT22;7912;51.376;6.126;2023-03-01T04:07:45;1.00;99.90
15625;DHT22;7912;51.376;6.126;2023-03-01T04:10:17;1.00;99.90
15625;DHT22;7912;51.376;6.126;2023-03-01T04:15:53;1.00;99.90
15625;DHT22;7912;51.376;6.126;2023-03-01T04:18:22;1.00;99.90
15625;DHT22;7912;51.376;6.126;2023-03-01T04:20:53;0.90;99.90
15625;DHT22;7912;51.376;6.126;2023-03-01T04:23:22;0.90;99.90
15625;DHT22;7912;51.376;6.126;2023-03-01T04:25:55;0.90;99.90
15625;DHT22;7912;51.376;6.126;2023-03-01T04:28:32;0.90;99.90
15625;DHT22;7912;51.376;6.126;2023-03-01T04:31:07;0.80;99.90
15625;DHT22;7912;51.376;6.126;2023-03-01T04:33:53;0.80;99.90
15625;DHT22;7912;51.376;6.126;2023-03-01T04:36:24;0.80;99.90
15625;DHT22;7912;51.376;6.126;2023-03-01T04:38:55;0.80;99.90
15625;DHT22;7912;51.376;6.126;2023-03-01T04:41:23;0.80;99.90
15625;DHT22;7912;51.376;6.126;2023-03-01T04:43:51;0.80;99.90
15625;DHT22;7912;51.376;6.126;2023-03-01T04:46:20;0.80;99.90
15625;DHT22;7912;51.376;6.126;2023-03-01T04:48:55;0.80;99.90
15625;DHT22;7912;51.376;6.126;2023-03-01T04:51:22;0.80;99.90
15625;DHT22;7912;51.376;6.126;2023-03-01T04:53:50;0.80;99.90
15625;DHT22;7912;51.376;6.126;2023-03-01T04:56:19;0.80;99.90
15625;DHT22;7912;51.376;6.126;2023-03-01T04:58:54;0.80;99.90
15625;DHT22;7912;51.376;6.126;2023-03-01T05:01:21;0.80;99.90
15625;DHT22;7912;51.376;6.126;2023-03-01T05:03:51;0.80;99.90
15625;DHT22;7912;51.376;6.126;2023-03-01T05:06:20;0.80;99.90
15625;DHT22;7912;51.376;6.126;2023-03-01T05:08:47;0.70;99.90
15625;DHT22;7912;51.376;6.126;2023-03-01T05:11:15;0.70;99.90
15625;DHT22;7912;51.376;6.126;2023-03-01T05:13:42;0.70;99.90
15625;DHT22;7912;51.376;6.126;2023-03-01T05:16:10;0.70;99.90
15625;DHT22;7912;51.376;6.126;2023-03-01T05:18:40;0.70;99.90
15625;DHT22;7912;51.376;6.126;2023-03-01T05:21:13;0.70;99.90
15625;DHT22;7912;51.376;6.126;2023-03-01T05:23:43;0.70;99.90
15625;DHT22;7912;51.376;6.126;2023-03-01T05:26:10;0.70;99.90
15625;DHT22;7912;51.376;6.126;2023-03-01T05:28:59;0.70;99.90
15625;DHT22;7912;51.376;6.126;2023-03-01T05:31:27;0.70;99.90
15625;DHT22;7912;51.376;6.126;2023-03-01T05:33:57;0.60;99.90
15625;DHT22;7912;51.376;6.126;2023-03-01T05:36:24;0.60;99.90
15625;DHT22;7912;51.376;6.126;2023-03-01T05:38:52;0.60;99.90
15625;DHT22;7912;51.376;6.126;2023-03-01T05:41:19;0.60;99.90
15625;DHT22;7912;51.376;6.126;2023-03-01T05:43:46;0.60;99.90
15625;DHT22;7912;51.376;6.126;2023-03-01T05:46:13;0.60;99.90
15625;DHT22;7912;51.376;6.126;2023-03-01T05:48:42;0.60;99.90
15625;DHT22;7912;51.376;6.126;2023-03-01T05:51:09;0.60;99.90
15625;DHT22;7912;51.376;6.126;2023-03-01T05:53:38;0.50;99.90
15625;DHT22;7912;51.376;6.126;2023-03-01T05:56:06;0.50;99.90
15625;DHT22;7912;51.376;6.126;2023-03-01T05:58:33;0.50;99.90
15625;DHT22;7912;51.376;6.126;2023-03-01T06:01:01;0.50;99.90
15625;DHT22;7912;51.376;6.126;2023-03-01T06:03:28;0.50;99.90
15625;DHT22;7912;51.376;6.126;2023-03-01T06:05:56;0.50;99.90
15625;DHT22;7912;51.376;6.126;2023-03-01T06:08:24;0.50;99.90
15625;DHT22;7912;51.376;6.126;2023-03-01T06:10:54;0.50;99.90
15625;DHT22;7912;51.376;6.126;2023-03-01T06:13:22;0.50;99.90
15625;DHT22;7912;51.376;6.126;2023-03-01T06:15:50;0.50;99.90
15625;DHT22;7912;51.376;6.126;2023-03-01T06:18:17;0.50;99.90
15625;DHT22;7912;51.376;6.126;2023-03-01T06:20:45;0.50;99.90
15625;DHT22;7912;51.376;6.126;2023-03-01T06:23:19;0.50;99.90
15625;DHT22;7912;51.376;6.126;2023-03-01T06:25:47;0.50;99.90
15625;DHT22;7912;51.376;6.126;2023-03-01T06:28:14;0.50;99.90
15625;DHT22;7912;51.376;6.126;2023-03-01T06:30:41;0.40;99.90
15625;DHT22;7912;51.376;6.126;2023-03-01T06:33:09;0.40;99.90
15625;DHT22;7912;51.376;6.126;2023-03-01T06:35:36;0.40;99.90
15625;DHT22;7912;51.376;6.126;2023-03-01T06:38:04;0.40;99.90
15625;DHT22;7912;51.376;6.126;2023-03-01T06:40:32;0.40;99.90
15625;DHT22;7912;51.376;6.126;2023-03-01T06:43:02;0.40;99.90
15625;DHT22;7912;51.376;6.126;2023-03-01T06:45:29;0.40;99.90
15625;DHT22;7912;51.376;6.126;2023-03-01T06:48:04;0.40;99.90
15625;DHT22;7912;51.376;6.126;2023-03-01T06:50:34;0.40;99.90
15625;DHT22;7912;51.376;6.126;2023-03-01T06:57:12;0.50;99.90
15625;DHT22;7912;51.376;6.126;2023-03-01T06:59:40;0.50;99.90
15625;DHT22;7912;51.376;6.126;2023-03-01T07:02:13;0.50;99.90
15625;DHT22;7912;51.376;6.126;2023-03-01T07:04:42;0.50;99.90
15625;DHT22;7912;51.376;6.126;2023-03-01T07:07:10;0.50;99.90
15625;DHT22;7912;51.376;6.126;2023-03-01T07:09:38;0.50;99.90
15625;DHT22;7912;51.376;6.126;2023-03-01T07:12:06;0.60;99.90
15625;DHT22;7912;51.376;6.126;2023-03-01T07:14:33;0.60;99.90
15625;DHT22;7912;51.376;6.126;2023-03-01T07:17:00;0.60;99.90
15625;DHT22;7912;51.376;6.126;2023-03-01T07:22:33;0.70;99.90
15625;DHT22;7912;51.376;6.126;2023-03-01T07:25:00;0.70;99.90
15625;DHT22;7912;51.376;6.126;2023-03-01T07:27:28;0.80;99.90
15625;DHT22;7912;51.376;6.126;2023-03-01T07:29:55;0.80;99.90
15625;DHT22;7912;51.376;6.126;2023-03-01T07:32:23;0.90;99.90
15625;DHT22;7912;51.376;6.126;2023-03-01T07:34:51;0.90;99.90
15625;DHT22;7912;51.376;6.126;2023-03-01T07:37:18;0.90;99.90
15625;DHT22;7912;51.376;6.126;2023-03-01T07:39:46;1.00;99.90
15625;DHT22;7912;51.376;6.126;2023-03-01T07:42:13;1.10;99.90
15625;DHT22;7912;51.376;6.126;2023-03-01T07:44:41;1.10;99.90
15625;DHT22;7912;51.376;6.126;2023-03-01T07:47:08;1.20;99.90
15625;DHT22;7912;51.376;6.126;2023-03-01T07:49:36;1.20;99.90
15625;DHT22;7912;51.376;6.126;2023-03-01T07:52:03;1.30;99.90
15625;DHT22;7912;51.376;6.126;2023-03-01T07:54:31;1.40;99.90
15625;DHT22;7912;51.376;6.126;2023-03-01T07:56:58;1.40;99.90
15625;DHT22;7912;51.376;6.126;2023-03-01T07:59:25;1.50;99.90
15625;DHT22;7912;51.376;6.126;2023-03-01T08:01:56;1.50;99.90
15625;DHT22;7912;51.376;6.126;2023-03-01T08:07:28;1.70;99.90
15625;DHT22;7912;51.376;6.126;2023-03-01T08:09:56;1.80;99.90
15625;DHT22;7912;51.376;6.126;2023-03-01T08:12:23;1.90;99.90
15625;DHT22;7912;51.376;6.126;2023-03-01T08:14:51;2.00;99.90
15625;DHT22;7912;51.376;6.126;2023-03-01T08:17:18;2.10;99.90
15625;DHT22;7912;51.376;6.126;2023-03-01T08:19:46;2.10;99.90
15625;DHT22;7912;51.376;6.126;2023-03-01T08:22:14;2.20;99.90
15625;DHT22;7912;51.376;6.126;2023-03-01T08:24:41;2.30;99.90
15625;DHT22;7912;51.376;6.126;2023-03-01T08:27:09;2.40;99.90
15625;DHT22;7912;51.376;6.126;2023-03-01T08:29:39;2.50;99.90
15625;DHT22;7912;51.376;6.126;2023-03-01T08:32:10;2.50;99.90
15625;DHT22;7912;51.376;6.126;2023-03-01T08:34:38;2.60;99.90
15625;DHT22;7912;51.376;6.126;2023-03-01T08:37:08;2.70;99.90
15625;DHT22;7912;51.376;6.126;2023-03-01T08:39:36;2.80;99.90
15625;DHT22;7912;51.376;6.126;2023-03-01T08:42:04;2.80;99.90
15625;DHT22;7912;51.376;6.126;2023-03-01T08:44:32;2.90;99.90
15625;DHT22;7912;51.376;6.126;2023-03-01T08:47:02;3.00;99.90
15625;DHT22;7912;51.376;6.126;2023-03-01T08:49:31;3.10;99.90
15625;DHT22;7912;51.376;6.126;2023-03-01T08:51:59;3.10;99.90
15625;DHT22;7912;51.376;6.126;2023-03-01T08:54:27;3.20;99.90
15625;DHT22;7912;51.376;6.126;2023-03-01T08:57:03;3.30;99.90
15625;DHT22;7912;51.376;6.126;2023-03-01T08:59:31;3.40;99.90
15625;DHT22;7912;51.376;6.126;2023-03-01T09:02:05;3.40;99.90
15625;DHT22;7912;51.376;6.126;2023-03-01T09:04:38;3.50;99.90
15625;DHT22;7912;51.376;6.126;2023-03-01T09:07:07;3.70;99.90
15625;DHT22;7912;51.376;6.126;2023-03-01T09:09:36;3.70;99.90
15625;DHT22;7912;51.376;6.126;2023-03-01T09:12:04;3.80;99.90
15625;DHT22;7912;51.376;6.126;2023-03-01T09:14:33;3.90;99.90
15625;DHT22;7912;51.376;6.126;2023-03-01T09:17:01;4.00;99.90
15625;DHT22;7912;51.376;6.126;2023-03-01T09:19:31;4.10;99.90
15625;DHT22;7912;51.376;6.126;2023-03-01T09:21:59;4.10;99.90
15625;DHT22;7912;51.376;6.126;2023-03-01T09:24:26;4.20;99.90
15625;DHT22;7912;51.376;6.126;2023-03-01T09:26:56;4.30;99.90
15625;DHT22;7912;51.376;6.126;2023-03-01T09:29:27;4.40;99.90
15625;DHT22;7912;51.376;6.126;2023-03-01T09:31:55;4.50;99.90
15625;DHT22;7912;51.376;6.126;2023-03-01T09:34:23;4.60;99.90
15625;DHT22;7912;51.376;6.126;2023-03-01T09:36:51;4.70;99.90
15625;DHT22;7912;51.376;6.126;2023-03-01T09:39:19;4.70;99.90
15625;DHT22;7912;51.376;6.126;2023-03-01T09:42:05;4.80;99.90
15625;DHT22;7912;51.376;6.126;2023-03-01T09:44:45;4.90;99.90
15625;DHT22;7912;51.376;6.126;2023-03-01T09:47:32;5.00;99.90
15625;DHT22;7912;51.376;6.126;2023-03-01T09:55:54;5.40;99.90
15625;DHT22;7912;51.376;6.126;2023-03-01T10:10:33;5.70;99.10
15625;DHT22;7912;51.376;6.126;2023-03-01T10:19:28;6.40;98.70
15625;DHT22;7912;51.376;6.126;2023-03-01T10:22:10;6.80;97.80
15625;DHT22;7912;51.376;6.126;2023-03-01T10:24:42;7.10;97.20
15625;DHT22;7912;51.376;6.126;2023-03-01T10:27:29;7.40;96.60
15625;DHT22;7912;51.376;6.126;2023-03-01T10:30:39;7.70;94.70
15625;DHT22;7912;51.376;6.126;2023-03-01T10:33:32;8.10;94.60
15625;DHT22;7912;51.376;6.126;2023-03-01T10:36:03;8.30;94.40
15625;DHT22;7912;51.376;6.126;2023-03-01T10:38:43;8.50;94.10
15625;DHT22;7912;51.376;6.126;2023-03-01T10:41:16;8.80;92.80
15625;DHT22;7912;51.376;6.126;2023-03-01T10:43:49;9.00;93.20
15625;DHT22;7912;51.376;6.126;2023-03-01T10:46:30;9.20;92.20
15625;DHT22;7912;51.376;6.126;2023-03-01T10:49:20;9.50;91.70
15625;DHT22;7912;51.376;6.126;2023-03-01T10:51:51;9.70;91.50
15625;DHT22;7912;51.376;6.126;2023-03-01T10:54:30;10.00;90.60
15625;DHT22;7912;51.376;6.126;2023-03-01T10:57:01;10.10;90.20
15625;DHT22;7912;51.376;6.126;2023-03-01T10:59:34;10.30;87.50
15625;DHT22;7912;51.376;6.126;2023-03-01T11:02:22;10.40;87.80
15625;DHT22;7912;51.376;6.126;2023-03-01T11:07:29;10.70;85.80
15625;DHT22;7912;51.376;6.126;2023-03-01T11:09:56;10.80;85.70
15625;DHT22;7912;51.376;6.126;2023-03-01T11:12:24;10.90;83.90
15625;DHT22;7912;51.376;6.126;2023-03-01T11:14:56;11.00;84.00
15625;DHT22;7912;51.376;6.126;2023-03-01T11:17:29;11.10;81.90
15625;DHT22;7912;51.376;6.126;2023-03-01T11:23:03;11.40;81.30
15625;DHT22;7912;51.376;6.126;2023-03-01T11:25:39;11.50;79.90
15625;DHT22;7912;51.376;6.126;2023-03-01T11:28:22;11.60;80.50
15625;DHT22;7912;51.376;6.126;2023-03-01T11:33:37;12.00;76.60
15625;DHT22;7912;51.376;6.126;2023-03-01T11:36:28;12.10;74.30
15625;DHT22;7912;51.376;6.126;2023-03-01T11:39:34;12.10;72.20
15625;DHT22;7912;51.376;6.126;2023-03-01T11:42:14;12.20;72.40
15625;DHT22;7912;51.376;6.126;2023-03-01T11:44:48;12.20;72.60
15625;DHT22;7912;51.376;6.126;2023-03-01T11:50:18;12.30;70.70
15625;DHT22;7912;51.376;6.126;2023-03-01T11:56:05;12.50;71.10
15625;DHT22;7912;51.376;6.126;2023-03-01T11:59:02;12.60;70.80
15625;DHT22;7912;51.376;6.126;2023-03-01T12:07:46;12.90;69.60
15625;DHT22;7912;51.376;6.126;2023-03-01T12:10:29;13.00;70.50
15625;DHT22;7912;51.376;6.126;2023-03-01T12:13:23;13.10;68.90
15625;DHT22;7912;51.376;6.126;2023-03-01T12:21:44;13.10;65.40
15625;DHT22;7912;51.376;6.126;2023-03-01T12:25:02;13.10;65.90
15625;DHT22;7912;51.376;6.126;2023-03-01T12:30:37;13.10;66.90
15625;DHT22;7912;51.376;6.126;2023-03-01T12:33:22;13.10;65.70
15625;DHT22;7912;51.376;6.126;2023-03-01T12:41:42;13.00;65.10
15625;DHT22;7912;51.376;6.126;2023-03-01T12:50:23;13.10;66.40
15625;DHT22;7912;51.376;6.126;2023-03-01T12:53:02;13.10;64.40
15625;DHT22;7912;51.376;6.126;2023-03-01T12:55:36;13.10;64.10
15625;DHT22;7912;51.376;6.126;2023-03-01T12:58:08;13.10;64.60
15625;DHT22;7912;51.376;6.126;2023-03-01T13:13:13;13.40;63.60
15625;DHT22;7912;51.376;6.126;2023-03-01T13:15:41;13.40;63.30
15625;DHT22;7912;51.376;6.126;2023-03-01T13:20:51;13.60;62.20
15625;DHT22;7912;51.376;6.126;2023-03-01T13:26:07;13.60;61.10
15625;DHT22;7912;51.376;6.126;2023-03-01T13:28:56;13.70;59.90
15625;DHT22;7912;51.376;6.126;2023-03-01T13:33:58;13.70;61.40
15625;DHT22;7912;51.376;6.126;2023-03-01T13:39:29;13.70;61.40
15625;DHT22;7912;51.376;6.126;2023-03-01T13:41:59;13.70;60.90
15625;DHT22;7912;51.376;6.126;2023-03-01T13:44:37;13.70;61.40
15625;DHT22;7912;51.376;6.126;2023-03-01T13:54:53;13.70;59.80
15625;DHT22;7912;51.376;6.126;2023-03-01T13:57:35;13.70;60.70
15625;DHT22;7912;51.376;6.126;2023-03-01T14:00:06;13.70;60.60
15625;DHT22;7912;51.376;6.126;2023-03-01T14:02:34;13.70;60.70
15625;DHT22;7912;51.376;6.126;2023-03-01T14:05:03;13.70;60.60
15625;DHT22;7912;51.376;6.126;2023-03-01T14:07:31;13.70;60.60
15625;DHT22;7912;51.376;6.126;2023-03-01T14:10:01;13.70;60.80
15625;DHT22;7912;51.376;6.126;2023-03-01T14:12:59;13.70;61.00
15625;DHT22;7912;51.376;6.126;2023-03-01T14:21:29;13.80;60.90
15625;DHT22;7912;51.376;6.126;2023-03-01T14:23:57;13.80;60.60
15625;DHT22;7912;51.376;6.126;2023-03-01T14:26:26;13.80;59.80
15625;DHT22;7912;51.376;6.126;2023-03-01T14:28:53;13.90;59.80
15625;DHT22;7912;51.376;6.126;2023-03-01T14:31:32;13.90;60.10
15625;DHT22;7912;51.376;6.126;2023-03-01T14:34:23;14.00;59.10
15625;DHT22;7912;51.376;6.126;2023-03-01T14:36:51;14.00;59.30
15625;DHT22;7912;51.376;6.126;2023-03-01T14:39:23;14.10;59.10
15625;DHT22;7912;51.376;6.126;2023-03-01T14:41:53;14.00;58.80
15625;DHT22;7912;51.376;6.126;2023-03-01T14:44:23;14.00;59.20
15625;DHT22;7912;51.376;6.126;2023-03-01T14:46:55;14.00;59.20
15625;DHT22;7912;51.376;6.126;2023-03-01T14:49:29;14.10;59.30
15625;DHT22;7912;51.376;6.126;2023-03-01T14:52:03;14.10;59.00
15625;DHT22;7912;51.376;6.126;2023-03-01T14:54:50;14.20;59.30
15625;DHT22;7912;51.376;6.126;2023-03-01T14:57:25;14.20;58.90
15625;DHT22;7912;51.376;6.126;2023-03-01T14:59:58;14.20;58.70
15625;DHT22;7912;51.376;6.126;2023-03-01T15:02:30;14.20;58.30
15625;DHT22;7912;51.376;6.126;2023-03-01T15:05:01;14.20;58.50
15625;DHT22;7912;51.376;6.126;2023-03-01T15:07:38;14.10;58.10
15625;DHT22;7912;51.376;6.126;2023-03-01T15:10:19;14.00;57.80
15625;DHT22;7912;51.376;6.126;2023-03-01T15:12:52;14.00;57.90
15625;DHT22;7912;51.376;6.126;2023-03-01T15:15:32;13.90;58.20
15625;DHT22;7912;51.376;6.126;2023-03-01T15:18:28;13.90;57.80
15625;DHT22;7912;51.376;6.126;2023-03-01T15:21:24;13.90;57.80
15625;DHT22;7912;51.376;6.126;2023-03-01T15:26:43;13.60;57.40
15625;DHT22;7912;51.376;6.126;2023-03-01T15:29:18;13.50;57.80
15625;DHT22;7912;51.376;6.126;2023-03-01T15:31:57;13.30;58.10
15625;DHT22;7912;51.376;6.126;2023-03-01T15:34:54;13.10;58.20
15625;DHT22;7912;51.376;6.126;2023-03-01T15:37:44;13.00;58.90
15625;DHT22;7912;51.376;6.126;2023-03-01T15:40:25;12.90;58.90
15625;DHT22;7912;51.376;6.126;2023-03-01T15:43:05;12.90;59.30
15625;DHT22;7912;51.376;6.126;2023-03-01T15:45:33;12.80;59.20
15625;DHT22;7912;51.376;6.126;2023-03-01T15:48:05;12.80;59.40
15625;DHT22;7912;51.376;6.126;2023-03-01T15:50:42;12.90;59.50
15625;DHT22;7912;51.376;6.126;2023-03-01T15:53:12;12.80;59.50
15625;DHT22;7912;51.376;6.126;2023-03-01T15:55:43;12.90;59.70
15625;DHT22;7912;51.376;6.126;2023-03-01T15:58:23;12.80;59.80
15625;DHT22;7912;51.376;6.126;2023-03-01T16:00:51;12.60;59.20
15625;DHT22;7912;51.376;6.126;2023-03-01T16:03:29;12.50;59.60
15625;DHT22;7912;51.376;6.126;2023-03-01T16:05:57;12.40;59.60
15625;DHT22;7912;51.376;6.126;2023-03-01T16:08:24;12.30;59.80
15625;DHT22;7912;51.376;6.126;2023-03-01T16:10:51;12.10;59.60
15625;DHT22;7912;51.376;6.126;2023-03-01T16:13:21;11.80;59.90
15625;DHT22;7912;51.376;6.126;2023-03-01T16:15:48;11.60;60.10
15625;DHT22;7912;51.376;6.126;2023-03-01T16:18:16;11.40;60.50
15625;DHT22;7912;51.376;6.126;2023-03-01T16:20:43;11.20;60.90
15625;DHT22;7912;51.376;6.126;2023-03-01T16:23:11;11.00;61.20
15625;DHT22;7912;51.376;6.126;2023-03-01T16:25:38;10.80;61.60
15625;DHT22;7912;51.376;6.126;2023-03-01T16:28:06;10.60;62.00
15625;DHT22;7912;51.376;6.126;2023-03-01T16:30:40;10.50;62.30
15625;DHT22;7912;51.376;6.126;2023-03-01T16:33:12;10.40;62.70
15625;DHT22;7912;51.376;6.126;2023-03-01T16:36:00;10.20;62.90
15625;DHT22;7912;51.376;6.126;2023-03-01T16:38:34;10.10;63.20
15625;DHT22;7912;51.376;6.126;2023-03-01T16:41:01;10.00;63.40
15625;DHT22;7912;51.376;6.126;2023-03-01T16:43:30;9.90;63.70
15625;DHT22;7912;51.376;6.126;2023-03-01T16:45:58;9.80;63.80
15625;DHT22;7912;51.376;6.126;2023-03-01T16:48:26;9.70;64.00
15625;DHT22;7912;51.376;6.126;2023-03-01T16:51:00;9.60;64.40
15625;DHT22;7912;51.376;6.126;2023-03-01T16:53:28;9.50;64.60
15625;DHT22;7912;51.376;6.126;2023-03-01T16:55:57;9.50;65.10
15625;DHT22;7912;51.376;6.126;2023-03-01T16:58:25;9.40;65.30
15625;DHT22;7912;51.376;6.126;2023-03-01T17:00:53;9.40;65.60
15625;DHT22;7912;51.376;6.126;2023-03-01T17:03:24;9.30;65.90
15625;DHT22;7912;51.376;6.126;2023-03-01T17:05:56;9.30;66.30
15625;DHT22;7912;51.376;6.126;2023-03-01T17:08:23;9.20;66.40
15625;DHT22;7912;51.376;6.126;2023-03-01T17:10:51;9.20;66.80
15625;DHT22;7912;51.376;6.126;2023-03-01T17:13:18;9.10;67.20
15625;DHT22;7912;51.376;6.126;2023-03-01T17:15:45;9.00;67.50
15625;DHT22;7912;51.376;6.126;2023-03-01T17:18:13;8.90;67.70
15625;DHT22;7912;51.376;6.126;2023-03-01T17:20:40;8.90;68.00
15625;DHT22;7912;51.376;6.126;2023-03-01T17:23:07;8.80;68.30
15625;DHT22;7912;51.376;6.126;2023-03-01T17:25:35;8.80;68.60
15625;DHT22;7912;51.376;6.126;2023-03-01T17:28:02;8.70;69.00
15625;DHT22;7912;51.376;6.126;2023-03-01T17:30:30;8.60;69.20
15625;DHT22;7912;51.376;6.126;2023-03-01T17:33:00;8.60;69.50
15625;DHT22;7912;51.376;6.126;2023-03-01T17:35:28;8.50;69.90
15625;DHT22;7912;51.376;6.126;2023-03-01T17:37:56;8.50;70.30
15625;DHT22;7912;51.376;6.126;2023-03-01T17:40:24;8.40;70.70
15625;DHT22;7912;51.376;6.126;2023-03-01T17:42:51;8.30;71.00
15625;DHT22;7912;51.376;6.126;2023-03-01T17:45:18;8.20;71.50
15625;DHT22;7912;51.376;6.126;2023-03-01T17:47:46;8.20;71.70
15625;DHT22;7912;51.376;6.126;2023-03-01T17:50:13;8.10;71.90
15625;DHT22;7912;51.376;6.126;2023-03-01T17:52:41;8.10;72.10
15625;DHT22;7912;51.376;6.126;2023-03-01T17:55:09;8.10;72.50
15625;DHT22;7912;51.376;6.126;2023-03-01T17:57:40;8.00;72.40
15625;DHT22;7912;51.376;6.126;2023-03-01T18:00:13;7.90;73.20
15625;DHT22;7912;51.376;6.126;2023-03-01T18:02:42;7.90;73.60
15625;DHT22;7912;51.376;6.126;2023-03-01T18:05:10;7.80;73.60
15625;DHT22;7912;51.376;6.126;2023-03-01T18:07:37;7.80;73.90
15625;DHT22;7912;51.376;6.126;2023-03-01T18:10:05;7.70;74.00
15625;DHT22;7912;51.376;6.126;2023-03-01T18:12:33;7.70;74.30
15625;DHT22;7912;51.376;6.126;2023-03-01T18:15:00;7.70;74.50
15625;DHT22;7912;51.376;6.126;2023-03-01T18:17:27;7.60;74.60
15625;DHT22;7912;51.376;6.126;2023-03-01T18:19:54;7.60;74.80
15625;DHT22;7912;51.376;6.126;2023-03-01T18:22:23;7.50;75.10
15625;DHT22;7912;51.376;6.126;2023-03-01T18:24:50;7.50;75.30
15625;DHT22;7912;51.376;6.126;2023-03-01T18:27:18;7.40;75.60
15625;DHT22;7912;51.376;6.126;2023-03-01T18:29:45;7.40;75.80
15625;DHT22;7912;51.376;6.126;2023-03-01T18:32:12;7.30;76.20
15625;DHT22;7912;51.376;6.126;2023-03-01T18:34:40;7.30;76.40
15625;DHT22;7912;51.376;6.126;2023-03-01T18:37:07;7.20;76.60
15625;DHT22;7912;51.376;6.126;2023-03-01T18:39:36;7.20;76.90
15625;DHT22;7912;51.376;6.126;2023-03-01T18:42:04;7.10;77.20
15625;DHT22;7912;51.376;6.126;2023-03-01T18:44:31;7.10;77.50
15625;DHT22;7912;51.376;6.126;2023-03-01T18:46:59;7.00;77.90
15625;DHT22;7912;51.376;6.126;2023-03-01T18:49:26;7.00;78.00
15625;DHT22;7912;51.376;6.126;2023-03-01T18:51:54;7.00;78.30
15625;DHT22;7912;51.376;6.126;2023-03-01T18:54:22;6.90;78.60
15625;DHT22;7912;51.376;6.126;2023-03-01T18:56:49;6.90;78.80
15625;DHT22;7912;51.376;6.126;2023-03-01T18:59:16;6.90;79.00
15625;DHT22;7912;51.376;6.126;2023-03-01T19:01:44;6.80;79.00